Time;durP1;ratioP1;P1;durP2;ratioP2;P2;SDS_P1;SDS_P2;PMS_P1;PMS_P2;Temp;Humidity;BMP_temperature;BMP_pressure;BME280_temperature;BME280_humidity;BME280_pressure;Samples;Min_cycle;Max_cycle;Signal;HPM_P1;HPM_P2
2021/05/31 00:02:01;;;;;;;9.90;5.88;;;18.00;98.30;;;;;;5013470;28;20026;-71
2021/05/31 00:04:27;;;;;;;6.13;5.53;;;17.90;98.10;;;;;;5018740;28;20030;-71
2021/05/31 00:07:05;;;;;;;10.30;5.32;;;17.90;98.20;;;;;;5014528;28;20038;-71
2021/05/31 00:09:33;;;;;;;8.27;6.05;;;17.90;98.30;;;;;;5016045;28;20014;-70
2021/05/31 00:11:59;;;;;;;8.15;5.95;;;17.90;98.00;;;;;;5018193;28;20022;-70
2021/05/31 00:14:26;;;;;;;8.38;6.07;;;17.80;98.10;;;;;;5010790;28;20026;-70
2021/05/31 00:16:52;;;;;;;8.35;6.55;;;17.80;98.10;;;;;;5014210;28;20026;-71
2021/05/31 00:19:21;;;;;;;6.57;5.85;;;17.80;98.40;;;;;;5009802;28;20470;-71
2021/05/31 00:21:47;;;;;;;6.78;5.60;;;17.70;98.70;;;;;;5013595;28;20048;-72
2021/05/31 00:24:13;;;;;;;8.73;6.47;;;17.70;98.60;;;;;;5012887;28;20032;-70
2021/05/31 00:26:39;;;;;;;9.65;6.63;;;17.70;98.70;;;;;;5012270;28;20033;-70
2021/05/31 00:29:05;;;;;;;7.32;6.63;;;17.60;98.80;;;;;;5013625;28;20022;-71
2021/05/31 00:31:31;;;;;;;11.00;6.72;;;17.60;98.70;;;;;;5014478;28;20029;-70
2021/05/31 00:33:56;;;;;;;6.55;5.85;;;17.50;98.80;;;;;;5018183;28;20117;-70
2021/05/31 00:36:22;;;;;;;9.15;6.78;;;17.50;99.00;;;;;;5015993;28;20722;-71
2021/05/31 00:38:48;;;;;;;7.80;6.60;;;17.40;99.00;;;;;;5016455;28;20049;-71
2021/05/31 00:41:14;;;;;;;10.40;6.30;;;17.30;99.10;;;;;;5015613;28;20040;-71
2021/05/31 00:43:40;;;;;;;7.60;6.82;;;17.30;99.40;;;;;;5013777;28;20018;-71
2021/05/31 00:46:08;;;;;;;7.78;6.22;;;17.20;99.60;;;;;;5012944;28;20482;-71
2021/05/31 00:48:35;;;;;;;7.57;6.78;;;17.20;99.40;;;;;;5012511;28;20470;-71
2021/05/31 00:51:04;;;;;;;8.68;5.78;;;17.10;99.90;;;;;;5010763;28;20075;-71
2021/05/31 00:53:30;;;;;;;9.65;6.15;;;17.10;99.90;;;;;;5014077;28;20018;-71
2021/05/31 00:55:56;;;;;;;9.77;6.75;;;17.10;99.90;;;;;;5014294;28;20411;-71
2021/05/31 00:58:27;;;;;;;7.97;6.40;;;17.10;99.70;;;;;;5012149;28;20088;-71
2021/05/31 01:00:54;;;;;;;9.98;7.30;;;17.10;99.70;;;;;;5017590;28;20034;-71
2021/05/31 01:03:20;;;;;;;8.27;6.88;;;17.00;99.40;;;;;;5018538;28;20025;-71
2021/05/31 01:05:47;;;;;;;10.00;7.78;;;17.00;99.50;;;;;;5013719;28;20045;-71
2021/05/31 01:08:29;;;;;;;12.60;8.52;;;16.90;99.60;;;;;;5014727;28;20137;-70
2021/05/31 01:11:12;;;;;;;10.70;7.77;;;16.90;99.50;;;;;;5017140;28;20113;-70
2021/05/31 01:13:40;;;;;;;8.43;7.22;;;16.80;99.70;;;;;;5010541;28;20482;-70
2021/05/31 01:16:21;;;;;;;8.00;7.18;;;16.70;99.30;;;;;;5022572;28;20175;-70
2021/05/31 01:18:48;;;;;;;9.18;8.20;;;16.70;99.40;;;;;;5010388;28;20545;-70
2021/05/31 01:21:22;;;;;;;10.07;7.65;;;16.60;99.60;;;;;;5019254;28;20038;-73
2021/05/31 01:23:56;;;;;;;7.80;6.93;;;16.60;99.90;;;;;;5024742;28;20018;-71
2021/05/31 01:26:26;;;;;;;9.27;7.68;;;16.60;99.90;;;;;;5019945;28;20083;-74
2021/05/31 01:29:03;;;;;;;9.88;7.53;;;16.50;99.90;;;;;;5015765;28;20018;-74
2021/05/31 01:31:34;;;;;;;9.88;7.70;;;16.50;99.90;;;;;;5015286;28;20118;-73
2021/05/31 01:34:00;;;;;;;8.90;7.20;;;16.30;99.90;;;;;;5024714;28;20053;-73
2021/05/31 01:36:30;;;;;;;9.40;7.90;;;16.30;99.90;;;;;;5018143;28;20121;-74
2021/05/31 01:38:56;;;;;;;11.60;7.85;;;16.30;99.90;;;;;;5015461;28;20029;-74
2021/05/31 01:41:23;;;;;;;11.30;8.15;;;16.30;99.90;;;;;;5016095;28;20483;-75
2021/05/31 01:43:50;;;;;;;9.65;8.48;;;16.20;99.90;;;;;;5019707;28;20462;-74
2021/05/31 01:46:15;;;;;;;10.80;9.68;;;16.20;99.90;;;;;;5020352;28;20557;-71
2021/05/31 01:48:43;;;;;;;11.88;9.18;;;16.10;99.90;;;;;;5018659;28;20022;-73
2021/05/31 01:51:09;;;;;;;9.90;8.88;;;16.10;99.90;;;;;;5020095;28;20063;-74
2021/05/31 01:53:35;;;;;;;12.60;9.30;;;16.10;99.90;;;;;;5014908;28;20021;-74
2021/05/31 01:56:01;;;;;;;11.82;8.70;;;16.10;99.90;;;;;;5014489;28;20041;-74
2021/05/31 01:58:28;;;;;;;11.43;9.48;;;16.00;99.90;;;;;;5015401;28;20026;-73
2021/05/31 02:00:54;;;;;;;13.82;10.40;;;16.00;99.90;;;;;;5014375;28;20049;-74
2021/05/31 02:03:19;;;;;;;11.38;9.73;;;15.90;99.90;;;;;;5019104;28;20058;-72
2021/05/31 02:05:45;;;;;;;11.05;9.88;;;15.90;99.90;;;;;;5015410;28;20065;-74
2021/05/31 02:08:11;;;;;;;13.32;10.65;;;15.90;99.90;;;;;;5025314;28;20515;-73
2021/05/31 02:10:36;;;;;;;11.77;10.02;;;15.80;99.90;;;;;;5018631;28;20030;-75
2021/05/31 02:13:04;;;;;;;11.48;10.27;;;15.80;99.90;;;;;;5021054;28;20030;-74
2021/05/31 02:15:35;;;;;;;13.73;11.15;;;15.80;99.90;;;;;;5024431;28;20038;-75
2021/05/31 02:18:22;;;;;;;15.57;11.27;;;15.70;99.90;;;;;;5023126;28;20034;-75
2021/05/31 02:20:52;;;;;;;14.25;11.52;;;15.70;99.90;;;;;;5019127;28;20113;-75
2021/05/31 02:23:19;;;;;;;17.15;9.95;;;15.70;99.90;;;;;;5018938;28;20037;-74
2021/05/31 02:25:46;;;;;;;13.15;9.93;;;15.60;99.90;;;;;;5025651;28;20017;-74
2021/05/31 02:28:13;;;;;;;10.50;9.40;;;15.60;99.90;;;;;;5020873;28;20573;-74
2021/05/31 02:30:39;;;;;;;10.82;9.40;;;15.50;99.90;;;;;;5021226;28;20025;-74
2021/05/31 02:33:06;;;;;;;10.65;8.77;;;15.50;99.90;;;;;;5019780;28;20385;-74
2021/05/31 02:35:34;;;;;;;12.52;9.52;;;15.50;99.90;;;;;;5020244;28;20034;-75
2021/05/31 02:38:03;;;;;;;10.98;9.43;;;15.40;99.90;;;;;;5023505;28;20022;-73
2021/05/31 02:40:30;;;;;;;12.38;10.25;;;15.40;99.90;;;;;;5021906;28;20033;-74
2021/05/31 02:42:58;;;;;;;15.52;10.75;;;15.30;99.90;;;;;;5020409;28;20022;-74
2021/05/31 02:45:25;;;;;;;13.48;10.48;;;15.30;99.90;;;;;;5021186;28;20581;-73
2021/05/31 02:47:51;;;;;;;12.35;10.02;;;15.30;99.90;;;;;;5019798;28;20024;-74
2021/05/31 02:50:17;;;;;;;14.40;10.80;;;15.20;99.90;;;;;;5022057;28;20377;-74
2021/05/31 02:52:43;;;;;;;12.50;9.68;;;15.20;99.90;;;;;;5019144;28;20030;-75
2021/05/31 02:55:31;;;;;;;14.02;10.15;;;15.20;99.90;;;;;;5016842;28;20552;-74
2021/05/31 02:57:57;;;;;;;12.55;10.15;;;15.10;99.90;;;;;;5015832;28;20053;-75
2021/05/31 03:00:24;;;;;;;15.00;10.88;;;15.10;99.90;;;;;;5019747;28;20164;-75
2021/05/31 03:02:50;;;;;;;15.15;12.02;;;15.10;99.90;;;;;;5015953;28;20025;-75
2021/05/31 03:05:19;;;;;;;13.75;11.30;;;15.00;99.90;;;;;;5016954;28;20020;-72
2021/05/31 03:07:45;;;;;;;15.50;12.00;;;14.90;99.90;;;;;;5021831;28;20056;-74
2021/05/31 03:10:11;;;;;;;18.83;11.45;;;14.90;99.90;;;;;;5016765;28;20108;-73
2021/05/31 03:12:37;;;;;;;13.15;11.02;;;14.90;99.90;;;;;;5013308;28;20048;-74
2021/05/31 03:15:05;;;;;;;14.57;10.88;;;14.90;99.90;;;;;;5017586;28;20413;-74
2021/05/31 03:17:31;;;;;;;13.88;11.07;;;14.80;99.90;;;;;;5017998;28;20040;-74
2021/05/31 03:19:57;;;;;;;14.50;11.38;;;14.90;99.90;;;;;;5013361;28;20470;-74
2021/05/31 03:22:23;;;;;;;17.20;12.30;;;14.80;99.90;;;;;;5014389;28;20034;-72
2021/05/31 03:24:48;;;;;;;15.50;10.77;;;14.80;99.90;;;;;;5013980;28;20018;-72
2021/05/31 03:27:15;;;;;;;14.73;11.77;;;14.80;99.90;;;;;;5015666;28;20096;-74
2021/05/31 03:29:40;;;;;;;16.27;12.05;;;14.80;99.90;;;;;;5016319;28;20522;-74
2021/05/31 03:32:06;;;;;;;13.30;10.77;;;14.70;99.90;;;;;;5021414;28;20033;-74
2021/05/31 03:34:32;;;;;;;12.23;10.38;;;14.70;99.90;;;;;;5017310;28;20049;-74
2021/05/31 03:36:57;;;;;;;13.27;10.63;;;14.70;99.90;;;;;;5022012;28;20037;-74
2021/05/31 03:39:23;;;;;;;12.93;9.57;;;14.60;99.90;;;;;;5018184;28;20029;-74
2021/05/31 03:41:49;;;;;;;12.40;10.13;;;14.60;99.90;;;;;;5013861;28;20034;-73
2021/05/31 03:44:14;;;;;;;14.55;10.32;;;14.70;99.90;;;;;;5017874;28;20421;-75
2021/05/31 03:46:40;;;;;;;11.65;9.77;;;14.60;99.90;;;;;;5015076;28;20081;-75
2021/05/31 03:49:06;;;;;;;13.77;10.60;;;14.60;99.90;;;;;;5018167;28;20083;-75
2021/05/31 03:51:31;;;;;;;13.30;10.57;;;14.50;99.90;;;;;;5015426;28;20036;-74
2021/05/31 03:53:57;;;;;;;15.05;11.25;;;14.50;99.90;;;;;;5015460;28;20030;-75
2021/05/31 03:56:23;;;;;;;15.80;10.60;;;14.40;99.90;;;;;;5018116;28;20077;-74
2021/05/31 03:58:49;;;;;;;12.45;11.05;;;14.50;99.90;;;;;;5016754;28;20470;-75
2021/05/31 04:01:16;;;;;;;14.93;11.50;;;14.50;99.90;;;;;;5019707;28;20036;-74
2021/05/31 04:03:42;;;;;;;14.65;11.15;;;14.40;99.90;;;;;;5018238;28;20014;-75
2021/05/31 04:06:24;;;;;;;15.95;10.75;;;14.40;99.90;;;;;;5013665;28;20053;-73
2021/05/31 04:11:37;;;;;;;17.17;11.60;;;14.40;99.90;;;;;;5015471;28;20088;-75
2021/05/31 04:14:17;;;;;;;16.80;12.20;;;14.50;99.90;;;;;;5014451;28;20026;-76
2021/05/31 04:16:45;;;;;;;19.38;12.02;;;14.50;99.90;;;;;;5012560;28;20510;-75
2021/05/31 04:19:12;;;;;;;17.95;12.10;;;14.50;99.90;;;;;;5020486;28;20037;-75
2021/05/31 04:21:39;;;;;;;18.13;13.88;;;14.40;99.90;;;;;;5018883;28;20029;-75
2021/05/31 04:24:05;;;;;;;16.52;12.60;;;14.40;99.90;;;;;;5012801;28;20049;-75
2021/05/31 04:26:35;;;;;;;19.88;13.55;;;14.40;99.90;;;;;;5018885;28;20014;-75
2021/05/31 04:29:02;;;;;;;16.52;13.57;;;14.40;99.90;;;;;;5018485;28;20435;-75
2021/05/31 04:31:28;;;;;;;16.52;12.27;;;14.40;99.90;;;;;;5018668;28;20022;-75
2021/05/31 04:33:53;;;;;;;18.10;13.50;;;14.40;99.90;;;;;;5021242;28;20030;-74
2021/05/31 04:36:19;;;;;;;17.23;12.85;;;14.40;99.90;;;;;;5014851;28;20060;-75
2021/05/31 04:38:45;;;;;;;18.38;11.48;;;14.40;99.90;;;;;;5018904;28;20030;-71
2021/05/31 04:41:11;;;;;;;16.75;12.10;;;14.40;99.90;;;;;;5017156;28;20062;-74
2021/05/31 04:43:36;;;;;;;18.30;12.93;;;14.40;99.90;;;;;;5017318;28;20060;-75
2021/05/31 04:46:04;;;;;;;18.55;13.18;;;14.40;99.90;;;;;;5015853;28;20057;-75
2021/05/31 04:48:33;;;;;;;18.88;13.30;;;14.50;99.90;;;;;;5014641;28;20071;-74
2021/05/31 04:51:01;;;;;;;14.75;11.85;;;14.40;99.90;;;;;;5013838;28;20109;-74
2021/05/31 04:53:28;;;;;;;16.38;12.25;;;14.50;99.90;;;;;;5016353;28;20044;-74
2021/05/31 04:55:54;;;;;;;16.80;12.77;;;14.50;99.90;;;;;;5020249;28;20044;-74
2021/05/31 04:58:21;;;;;;;15.35;11.77;;;14.50;99.90;;;;;;5019860;28;20112;-74
2021/05/31 05:00:48;;;;;;;14.65;11.55;;;14.60;99.90;;;;;;5015303;28;20033;-75
2021/05/31 05:03:14;;;;;;;14.48;11.45;;;14.50;99.90;;;;;;5019750;28;20018;-74
2021/05/31 05:05:39;;;;;;;14.18;11.52;;;14.60;99.90;;;;;;5020872;28;20099;-81
2021/05/31 05:08:06;;;;;;;15.63;11.70;;;14.60;99.90;;;;;;5019960;28;20037;-74
2021/05/31 05:10:32;;;;;;;15.90;12.18;;;14.60;99.90;;;;;;5018141;28;20152;-75
2021/05/31 05:12:57;;;;;;;17.58;12.88;;;14.60;99.90;;;;;;5018296;28;20038;-75
2021/05/31 05:15:25;;;;;;;17.15;12.10;;;14.70;99.90;;;;;;5022247;28;20045;-74
2021/05/31 05:17:51;;;;;;;13.80;11.25;;;14.70;99.90;;;;;;5019566;28;20486;-74
2021/05/31 05:20:18;;;;;;;16.67;11.50;;;14.70;99.90;;;;;;5018665;28;20105;-75
2021/05/31 05:22:44;;;;;;;16.52;11.95;;;14.70;99.90;;;;;;5024544;28;20036;-74
2021/05/31 05:25:11;;;;;;;15.40;11.13;;;14.70;99.90;;;;;;5020056;28;20024;-74
2021/05/31 05:27:38;;;;;;;20.48;12.82;;;14.80;99.90;;;;;;5021800;28;20026;-73
2021/05/31 05:30:05;;;;;;;18.08;11.88;;;14.80;99.90;;;;;;5021734;28;20049;-74
2021/05/31 05:32:32;;;;;;;18.42;12.95;;;14.80;99.90;;;;;;5019842;28;20024;-74
2021/05/31 05:35:06;;;;;;;19.33;12.45;;;14.80;99.90;;;;;;5020630;28;20033;-74
2021/05/31 05:37:33;;;;;;;17.85;13.25;;;14.80;99.90;;;;;;5023730;28;20034;-73
2021/05/31 05:43:01;;;;;;;19.55;12.50;;;14.90;99.90;;;;;;5024578;28;20030;-74
2021/05/31 05:48:02;;;;;;;17.63;13.68;;;15.10;99.90;;;;;;5022782;28;20483;-74
2021/05/31 05:50:27;;;;;;;16.92;11.73;;;15.10;99.90;;;;;;5019516;28;20030;-74
2021/05/31 05:52:53;;;;;;;17.95;12.98;;;15.10;99.90;;;;;;5021156;28;20037;-74
2021/05/31 05:55:19;;;;;;;16.90;11.82;;;15.10;99.90;;;;;;5020676;28;20037;-74
2021/05/31 05:57:45;;;;;;;17.48;13.25;;;15.20;99.90;;;;;;5016195;28;20018;-74
2021/05/31 06:00:14;;;;;;;19.27;14.80;;;15.30;99.90;;;;;;5017519;28;20049;-75
2021/05/31 06:02:40;;;;;;;20.80;13.40;;;15.30;99.90;;;;;;5019576;28;20026;-74
2021/05/31 06:05:07;;;;;;;18.77;11.80;;;15.30;99.90;;;;;;5016909;28;20485;-74
2021/05/31 06:07:33;;;;;;;20.05;12.90;;;15.30;99.90;;;;;;5018750;28;20029;-74
2021/05/31 06:10:00;;;;;;;20.02;13.65;;;15.40;99.90;;;;;;5018693;28;20100;-70
2021/05/31 06:12:26;;;;;;;22.92;15.25;;;15.40;99.90;;;;;;5029768;28;20087;-70
2021/05/31 06:14:52;;;;;;;20.70;13.13;;;15.40;99.90;;;;;;5019776;28;20038;-70
2021/05/31 06:17:17;;;;;;;19.90;14.95;;;15.50;99.90;;;;;;5022242;28;20466;-70
2021/05/31 06:19:43;;;;;;;23.15;15.10;;;15.50;99.90;;;;;;5021573;28;20098;-70
2021/05/31 06:22:08;;;;;;;14.38;11.10;;;15.60;99.90;;;;;;5020917;28;20026;-71
2021/05/31 06:24:34;;;;;;;20.00;13.35;;;15.60;99.90;;;;;;5020103;28;20052;-71
2021/05/31 06:27:00;;;;;;;18.40;12.77;;;15.80;99.90;;;;;;5013428;28;20089;-71
2021/05/31 06:29:27;;;;;;;22.42;15.65;;;15.90;99.90;;;;;;5020192;28;20038;-71
2021/05/31 06:31:52;;;;;;;19.17;14.32;;;15.90;99.90;;;;;;5018643;28;20482;-71
2021/05/31 06:34:18;;;;;;;23.80;14.15;;;16.00;99.90;;;;;;5016073;28;20034;-70
2021/05/31 06:36:45;;;;;;;19.73;14.00;;;16.10;99.90;;;;;;5018595;28;20045;-70
2021/05/31 06:39:11;;;;;;;25.63;13.90;;;16.20;99.90;;;;;;5020711;28;20025;-71
2021/05/31 06:41:38;;;;;;;19.75;14.10;;;16.40;99.90;;;;;;5020862;28;20029;-70
2021/05/31 06:44:05;;;;;;;22.52;13.90;;;16.50;99.90;;;;;;5015262;28;20036;-71
2021/05/31 06:46:31;;;;;;;18.63;12.73;;;16.70;99.90;;;;;;5019128;28;20045;-71
2021/05/31 06:48:56;;;;;;;18.67;12.90;;;16.80;99.90;;;;;;5015638;28;20469;-70
2021/05/31 06:51:22;;;;;;;20.77;13.23;;;17.00;99.90;;;;;;5018733;28;20033;-72
2021/05/31 06:53:48;;;;;;;20.17;13.75;;;17.20;99.90;;;;;;5016072;28;20018;-72
2021/05/31 06:56:16;;;;;;;18.10;12.30;;;17.20;99.90;;;;;;5014881;28;20048;-72
2021/05/31 06:58:42;;;;;;;16.92;12.13;;;17.30;99.90;;;;;;5020088;28;20021;-72
2021/05/31 07:01:09;;;;;;;21.77;13.88;;;17.40;99.90;;;;;;5015565;28;20033;-73
2021/05/31 07:03:35;;;;;;;18.77;11.70;;;17.50;99.90;;;;;;5018840;28;20041;-72
2021/05/31 07:06:01;;;;;;;21.27;12.82;;;17.60;99.90;;;;;;5016464;28;20030;-73
2021/05/31 07:08:26;;;;;;;17.70;11.55;;;17.70;99.90;;;;;;5015327;28;20473;-74
2021/05/31 07:10:54;;;;;;;18.85;11.93;;;17.90;99.90;;;;;;5016466;28;20038;-75
2021/05/31 07:13:20;;;;;;;17.05;11.00;;;18.00;99.90;;;;;;5020302;28;20014;-74
2021/05/31 07:15:50;;;;;;;18.88;11.77;;;18.20;99.90;;;;;;5017845;28;20107;-75
2021/05/31 07:18:16;;;;;;;16.95;11.18;;;18.30;99.90;;;;;;5016404;28;20091;-75
2021/05/31 07:20:42;;;;;;;21.75;11.32;;;18.40;99.90;;;;;;5020883;28;20475;-75
2021/05/31 07:23:09;;;;;;;15.50;10.88;;;18.60;99.90;;;;;;5015257;28;20026;-74
2021/05/31 07:25:35;;;;;;;13.45;10.35;;;18.60;99.90;;;;;;5019589;28;20080;-75
2021/05/31 07:28:01;;;;;;;17.45;11.20;;;18.80;99.90;;;;;;5013349;28;20430;-74
2021/05/31 07:30:26;;;;;;;14.55;10.98;;;18.90;99.90;;;;;;5018852;28;20040;-75
2021/05/31 07:32:52;;;;;;;16.15;11.40;;;18.90;99.90;;;;;;5002801;28;20025;-74
2021/05/31 07:35:18;;;;;;;12.68;9.90;;;19.20;99.90;;;;;;5014690;28;20076;-74
2021/05/31 07:37:43;;;;;;;19.42;11.95;;;19.30;99.90;;;;;;5016017;28;20547;-73
2021/05/31 07:40:12;;;;;;;18.40;11.80;;;19.30;99.90;;;;;;5017594;28;20026;-74
2021/05/31 07:42:39;;;;;;;14.30;11.18;;;19.40;99.90;;;;;;5011181;28;20108;-74
2021/05/31 07:45:06;;;;;;;14.85;10.90;;;19.50;99.90;;;;;;5017773;28;20021;-75
2021/05/31 07:47:32;;;;;;;15.80;10.77;;;19.60;99.90;;;;;;5015223;28;20043;-74
2021/05/31 07:49:58;;;;;;;12.73;10.05;;;19.70;99.90;;;;;;5015394;28;20018;-73
2021/05/31 07:52:28;;;;;;;10.57;9.15;;;19.70;99.90;;;;;;5017923;28;20045;-74
2021/05/31 07:54:55;;;;;;;15.70;10.70;;;19.80;99.90;;;;;;5013128;28;20025;-73
2021/05/31 07:57:21;;;;;;;15.70;10.88;;;19.90;99.90;;;;;;5013866;28;20030;-74
2021/05/31 07:59:47;;;;;;;15.15;11.25;;;20.00;99.90;;;;;;5007498;28;20077;-73
2021/05/31 08:02:14;;;;;;;14.88;10.23;;;20.10;99.90;;;;;;5013996;28;20037;-73
2021/05/31 08:04:39;;;;;;;13.95;8.95;;;20.30;99.90;;;;;;5013616;28;20026;-73
2021/05/31 08:07:05;;;;;;;12.77;9.02;;;20.30;99.90;;;;;;5016777;28;20049;-74
2021/05/31 08:09:31;;;;;;;14.23;9.48;;;20.50;99.90;;;;;;5020286;28;20041;-73
2021/05/31 08:11:57;;;;;;;15.45;9.68;;;20.60;99.90;;;;;;5017513;28;20037;-73
2021/05/31 08:14:24;;;;;;;11.20;8.85;;;20.70;99.90;;;;;;5011466;28;20033;-73
2021/05/31 08:16:50;;;;;;;11.80;8.65;;;20.70;99.90;;;;;;5014386;28;20037;-73
2021/05/31 08:19:17;;;;;;;14.55;8.38;;;20.90;99.90;;;;;;5023059;28;20017;-73
2021/05/31 08:21:44;;;;;;;12.38;8.07;;;20.90;99.90;;;;;;5013555;28;20116;-73
2021/05/31 08:24:09;;;;;;;12.68;8.13;;;21.00;99.90;;;;;;5013780;28;20084;-73
2021/05/31 08:26:40;;;;;;;10.82;7.50;;;21.00;99.90;;;;;;5014513;28;20042;-73
2021/05/31 08:29:06;;;;;;;11.23;6.80;;;21.10;99.90;;;;;;5013641;28;20481;-75
2021/05/31 08:31:32;;;;;;;11.10;6.35;;;21.20;99.90;;;;;;5014660;28;20045;-74
2021/05/31 08:33:58;;;;;;;9.05;6.20;;;21.40;99.90;;;;;;5012646;28;20083;-73
2021/05/31 08:36:24;;;;;;;8.02;5.88;;;21.40;99.70;;;;;;5017046;28;20549;-74
2021/05/31 08:38:52;;;;;;;8.70;6.07;;;21.40;99.90;;;;;;5015467;28;20026;-74
2021/05/31 08:41:18;;;;;;;15.65;6.10;;;21.50;99.50;;;;;;5009115;28;20034;-73
2021/05/31 08:43:44;;;;;;;10.27;7.82;;;21.50;99.20;;;;;;5013341;28;20041;-76
2021/05/31 08:46:10;;;;;;;8.90;7.25;;;21.60;98.70;;;;;;5011867;28;20025;-70
2021/05/31 08:48:36;;;;;;;7.22;6.03;;;21.70;97.60;;;;;;5013202;28;20026;-74
2021/05/31 08:51:02;;;;;;;10.13;6.32;;;21.80;99.30;;;;;;5014053;28;20554;-74
2021/05/31 08:53:28;;;;;;;8.68;5.78;;;21.80;98.40;;;;;;5010541;28;20578;-73
2021/05/31 08:55:54;;;;;;;5.35;4.07;;;21.90;99.40;;;;;;5013797;28;20128;-75
2021/05/31 08:58:20;;;;;;;8.32;6.18;;;22.10;96.80;;;;;;5014118;28;20105;-72
2021/05/31 09:00:45;;;;;;;6.40;5.50;;;22.20;96.20;;;;;;5013849;28;20164;-71
2021/05/31 09:03:11;;;;;;;6.03;4.55;;;22.30;97.20;;;;;;5014876;28;20030;-72
2021/05/31 09:05:42;;;;;;;6.88;4.95;;;22.40;95.60;;;;;;5013340;28;20025;-73
2021/05/31 09:08:09;;;;;;;5.07;4.00;;;22.40;95.80;;;;;;5015842;28;20029;-72
2021/05/31 09:10:51;;;;;;;8.80;5.93;;;22.50;95.40;;;;;;5014265;28;20026;-71
2021/05/31 09:13:32;;;;;;;7.70;5.20;;;22.60;95.00;;;;;;5015291;28;20068;-71
2021/05/31 09:16:04;;;;;;;3.75;3.45;;;22.80;95.10;;;;;;5012884;28;20116;-71
2021/05/31 09:18:29;;;;;;;6.95;4.32;;;23.10;93.10;;;;;;5017143;28;20026;-71
2021/05/31 09:20:55;;;;;;;10.85;4.28;;;23.10;94.90;;;;;;5018153;28;20100;-72
2021/05/31 09:23:20;;;;;;;6.28;4.45;;;23.20;92.70;;;;;;5016673;28;20555;-72
2021/05/31 09:25:46;;;;;;;4.20;3.80;;;23.30;94.00;;;;;;5014968;28;20041;-71
2021/05/31 09:28:13;;;;;;;4.88;3.80;;;23.40;92.80;;;;;;5024004;28;20109;-74
2021/05/31 09:30:41;;;;;;;5.20;4.65;;;23.50;93.80;;;;;;5017365;28;20029;-71
2021/05/31 09:33:12;;;;;;;6.30;4.60;;;23.60;92.20;;;;;;5017203;28;20084;-71
2021/05/31 09:35:43;;;;;;;5.60;5.03;;;23.60;93.60;;;;;;5013231;28;20129;-71
2021/05/31 09:38:09;;;;;;;5.63;4.57;;;23.50;93.50;;;;;;5017988;28;20022;-72
2021/05/31 09:40:35;;;;;;;4.82;4.43;;;23.60;94.40;;;;;;5015751;28;20083;-73
2021/05/31 09:43:04;;;;;;;6.40;3.75;;;23.80;93.00;;;;;;5015381;28;20104;-76
2021/05/31 09:45:30;;;;;;;6.50;4.03;;;24.00;91.00;;;;;;5022276;28;20075;-75
2021/05/31 09:48:03;;;;;;;6.55;3.50;;;23.90;92.30;;;;;;5017628;28;20018;-73
2021/05/31 09:50:31;;;;;;;4.00;3.63;;;24.10;91.70;;;;;;5016712;28;20383;-76
2021/05/31 09:53:11;;;;;;;4.53;3.78;;;23.90;89.70;;;;;;5020319;28;20104;-75
2021/05/31 09:55:39;;;;;;;3.90;3.47;;;24.10;90.90;;;;;;5018195;28;20033;-74
2021/05/31 09:58:09;;;;;;;7.20;3.72;;;24.30;90.90;;;;;;5017459;28;20021;-74
2021/05/31 10:00:35;;;;;;;4.80;3.50;;;24.40;90.90;;;;;;5017139;28;20104;-75
2021/05/31 10:03:18;;;;;;;7.32;4.03;;;24.10;90.80;;;;;;5013568;28;20034;-75
2021/05/31 10:10:56;;;;;;;5.13;3.40;;;24.50;87.00;;;;;;5017290;28;20563;-74
2021/05/31 10:13:23;;;;;;;8.52;3.65;;;24.10;87.50;;;;;;5018810;28;20036;-75
2021/05/31 10:15:49;;;;;;;7.65;3.47;;;24.30;89.80;;;;;;5016639;28;20042;-72
2021/05/31 10:18:17;;;;;;;4.80;3.60;;;24.40;86.70;;;;;;5018960;28;20026;-73
2021/05/31 10:20:44;;;;;;;5.32;3.88;;;24.60;86.10;;;;;;5018626;28;20036;-72
2021/05/31 10:23:11;;;;;;;5.32;4.00;;;24.50;86.20;;;;;;5013285;28;20440;-72
2021/05/31 10:25:41;;;;;;;5.18;4.07;;;24.70;84.60;;;;;;5019569;28;20041;-73
2021/05/31 10:28:17;;;;;;;5.78;3.90;;;24.50;85.70;;;;;;5015133;28;20033;-73
2021/05/31 10:30:51;;;;;;;5.60;4.80;;;24.80;85.90;;;;;;5020791;28;20113;-75
2021/05/31 10:33:19;;;;;;;6.10;4.13;;;24.90;85.10;;;;;;5014940;28;20040;-74
2021/05/31 10:35:45;;;;;;;7.40;4.53;;;24.60;87.40;;;;;;5014989;28;20034;-81
2021/05/31 10:38:18;;;;;;;6.18;4.35;;;24.20;88.80;;;;;;5023998;28;20044;-75
2021/05/31 10:40:47;;;;;;;5.30;3.63;;;24.10;89.50;;;;;;5014804;28;20438;-73
2021/05/31 10:43:14;;;;;;;5.38;3.63;;;24.00;90.70;;;;;;5014513;28;20490;-78
2021/05/31 10:45:41;;;;;;;6.47;4.18;;;24.10;89.70;;;;;;5017125;28;20470;-76
2021/05/31 10:48:15;;;;;;;4.30;3.80;;;24.40;90.30;;;;;;5017684;28;20565;-81
2021/05/31 10:50:58;;;;;;;5.18;3.72;;;24.70;88.10;;;;;;5018002;28;20482;-78
2021/05/31 10:53:30;;;;;;;6.70;3.80;;;24.50;91.80;;;;;;5018223;28;20022;-76
2021/05/31 10:56:01;;;;;;;4.45;3.03;;;24.30;86.20;;;;;;5017904;28;20545;-78
2021/05/31 10:58:33;;;;;;;4.45;3.50;;;24.70;88.30;;;;;;5021771;28;20033;-76
2021/05/31 11:01:02;;;;;;;3.77;3.47;;;24.90;85.00;;;;;;5021650;28;20033;-75
2021/05/31 11:03:29;;;;;;;5.47;3.00;;;25.10;86.60;;;;;;5017357;28;20029;-76
2021/05/31 11:05:56;;;;;;;4.18;3.08;;;25.30;85.70;;;;;;5021623;28;20064;-75
2021/05/31 11:08:31;;;;;;;4.32;3.85;;;25.40;83.50;;;;;;5011938;28;20069;-77
2021/05/31 11:11:02;;;;;;;6.72;4.20;;;25.40;80.90;;;;;;5018620;28;20034;-78
2021/05/31 11:13:29;;;;;;;6.40;4.20;;;25.50;85.90;;;;;;5019944;28;20079;-71
2021/05/31 11:16:09;;;;;;;5.13;4.10;;;25.50;87.00;;;;;;5022080;28;20152;-70
2021/05/31 11:18:45;;;;;;;4.63;4.03;;;25.70;83.90;;;;;;5014794;28;20490;-72
2021/05/31 11:21:24;;;;;;;5.03;3.80;;;25.60;82.50;;;;;;5012498;28;20022;-70
2021/05/31 11:23:59;;;;;;;8.40;4.45;;;25.50;82.80;;;;;;5016266;28;20514;-69
2021/05/31 11:26:30;;;;;;;5.10;3.72;;;25.00;83.60;;;;;;5013843;28;20029;-70
2021/05/31 11:28:57;;;;;;;5.38;4.10;;;24.90;83.70;;;;;;5021281;28;20061;-71
2021/05/31 11:31:25;;;;;;;5.90;4.30;;;24.90;83.90;;;;;;5015754;28;20018;-76
2021/05/31 11:33:55;;;;;;;5.40;4.30;;;24.80;87.00;;;;;;5012833;28;20018;-75
2021/05/31 11:36:35;;;;;;;4.90;4.20;;;24.70;83.00;;;;;;5023565;28;20104;-76
2021/05/31 11:39:09;;;;;;;5.57;4.65;;;25.00;86.70;;;;;;5020635;28;20041;-74
2021/05/31 11:41:46;;;;;;;5.80;4.43;;;25.30;86.50;;;;;;5012676;28;20478;-73
2021/05/31 11:44:29;;;;;;;52.75;7.53;;;25.50;86.00;;;;;;5024221;28;20029;-76
2021/05/31 11:47:04;;;;;;;8.60;4.68;;;25.30;79.50;;;;;;5011449;28;20379;-74
2021/05/31 11:49:37;;;;;;;7.28;3.95;;;25.50;79.40;;;;;;5014458;28;20076;-77
2021/05/31 11:52:03;;;;;;;;;;;25.60;82.40;;;;;;5017701;28;20474;-76
2021/05/31 11:54:33;;;;;;;6.10;4.30;;;25.90;82.30;;;;;;5012285;28;19992;-76
2021/05/31 11:57:13;;;;;;;5.28;4.70;;;26.10;81.10;;;;;;5010096;28;20022;-73
2021/05/31 11:59:40;;;;;;;8.48;4.05;;;26.00;81.20;;;;;;5012661;28;20474;-74
2021/05/31 12:02:13;;;;;;;6.53;4.15;;;26.10;78.30;;;;;;5011803;28;20116;-73
2021/05/31 12:04:41;;;;;;;6.40;4.88;;;26.20;82.60;;;;;;5016015;28;20034;-73
2021/05/31 12:07:09;;;;;;;6.32;4.28;;;26.50;79.70;;;;;;5013334;28;20377;-80
2021/05/31 12:09:44;;;;;;;5.38;4.10;;;26.30;78.70;;;;;;5011541;28;20018;-80
2021/05/31 12:12:11;;;;;;;7.13;4.45;;;26.00;80.30;;;;;;5011939;28;20704;-80
2021/05/31 12:14:47;;;;;;;6.70;4.15;;;25.80;79.80;;;;;;5011928;28;20066;-79
2021/05/31 12:17:14;;;;;;;14.52;5.63;;;25.40;83.90;;;;;;5012343;28;20580;-80
2021/05/31 12:19:41;;;;;;;4.82;4.40;;;25.70;81.30;;;;;;5015576;28;20029;-79
2021/05/31 12:22:08;;;;;;;5.82;5.22;;;25.90;81.00;;;;;;5013353;28;20160;-77
2021/05/31 12:24:36;;;;;;;20.70;6.82;;;26.10;82.70;;;;;;5010776;28;20673;-76
2021/05/31 12:27:03;;;;;;;13.10;5.35;;;26.20;80.30;;;;;;5017253;28;20037;-72
2021/05/31 12:29:40;;;;;;;5.68;4.88;;;26.40;79.30;;;;;;5011937;28;20092;-76
2021/05/31 12:32:07;;;;;;;6.40;4.72;;;26.50;80.60;;;;;;5013669;28;20985;-76
2021/05/31 12:34:34;;;;;;;6.95;4.43;;;26.50;77.90;;;;;;5013643;28;20026;-75
2021/05/31 12:37:01;;;;;;;6.20;5.10;;;26.80;80.50;;;;;;5017487;28;20038;-78
2021/05/31 12:39:28;;;;;;;5.32;4.65;;;26.80;76.60;;;;;;5015376;28;20035;-75
2021/05/31 12:41:55;;;;;;;7.88;4.45;;;26.70;79.70;;;;;;5015849;28;20064;-73
2021/05/31 12:44:22;;;;;;;7.43;5.05;;;26.40;78.50;;;;;;5016017;28;20505;-75
2021/05/31 12:46:47;;;;;;;4.60;4.20;;;26.60;76.90;;;;;;5020141;28;20418;-77
2021/05/31 12:49:15;;;;;;;6.47;5.28;;;26.50;81.70;;;;;;5012628;28;20022;-75
2021/05/31 12:51:54;;;;;;;7.00;4.88;;;26.50;80.50;;;;;;5017750;28;20034;-80
2021/05/31 12:54:20;;;;;;;6.30;4.43;;;26.50;78.20;;;;;;5017569;28;20045;-73
2021/05/31 12:56:47;;;;;;;6.07;4.75;;;26.40;80.30;;;;;;5017514;28;20045;-72